sensor_id;sensor_type;location;lat;lon;timestamp;pressure;altitude;pressure_sealevel;temperature;humidity
38038;BME280;23843;51.320;12.340;2023-02-22T05:30:43;100351.22;;;9.25;100.00
38038;BME280;23843;51.320;12.340;2023-02-22T05:33:09;100351.22;;;9.25;100.00
38038;BME280;23843;51.320;12.340;2023-02-22T05:35:34;100352.09;;;9.25;100.00
38038;BME280;23843;51.320;12.340;2023-02-22T05:38:00;100347.72;;;9.24;100.00
38038;BME280;23843;51.320;12.340;2023-02-22T05:40:26;100349.28;;;9.28;100.00
38038;BME280;23843;51.320;12.340;2023-02-22T05:42:52;100351.94;;;9.28;100.00
38038;BME280;23843;51.320;12.340;2023-02-22T05:45:20;100348.38;;;9.29;100.00
38038;BME280;23843;51.320;12.340;2023-02-22T05:47:51;100348.38;;;9.29;100.00
38038;BME280;23843;51.320;12.340;2023-02-22T05:50:19;100355.34;;;9.30;100.00
38038;BME280;23843;51.320;12.340;2023-02-22T05:52:45;100355.50;;;9.27;100.00
38038;BME280;23843;51.320;12.340;2023-02-22T05:55:13;100351.00;;;9.29;100.00
38038;BME280;23843;51.320;12.340;2023-02-22T05:57:40;100351.94;;;9.28;100.00
38038;BME280;23843;51.320;12.340;2023-02-22T06:00:13;100342.50;;;9.23;100.00
38038;BME280;23843;51.320;12.340;2023-02-22T06:02:39;100351.00;;;9.29;100.00
38038;BME280;23843;51.320;12.340;2023-02-22T06:05:09;100349.06;;;9.33;100.00
38038;BME280;23843;51.320;12.340;2023-02-22T06:07:36;100348.06;;;9.35;100.00
38038;BME280;23843;51.320;12.340;2023-02-22T06:10:01;100357.72;;;9.36;100.00
38038;BME280;23843;51.320;12.340;2023-02-22T06:12:27;100352.44;;;9.36;100.00
38038;BME280;23843;51.320;12.340;2023-02-22T06:14:52;100353.34;;;9.35;100.00
38038;BME280;23843;51.320;12.340;2023-02-22T06:17:18;100352.56;;;9.33;100.00
38038;BME280;23843;51.320;12.340;2023-02-22T06:19:43;100357.72;;;9.36;100.00
38038;BME280;23843;51.320;12.340;2023-02-22T06:22:15;100358.47;;;9.38;100.00
38038;BME280;23843;51.320;12.340;2023-02-22T06:24:41;100362.06;;;9.37;100.00
38038;BME280;23843;51.320;12.340;2023-02-22T06:27:07;100354.97;;;9.38;100.00
38038;BME280;23843;51.320;12.340;2023-02-22T06:29:33;100361.75;;;9.43;100.00
38038;BME280;23843;51.320;12.340;2023-02-22T06:31:59;100362.53;;;9.46;100.00
38038;BME280;23843;51.320;12.340;2023-02-22T06:34:26;100351.88;;;9.47;100.00
38038;BME280;23843;51.320;12.340;2023-02-22T06:36:52;100359.59;;;9.52;100.00
38038;BME280;23843;51.320;12.340;2023-02-22T06:39:20;100363.03;;;9.54;100.00
38038;BME280;23843;51.320;12.340;2023-02-22T06:41:47;100368.38;;;9.52;100.00
38038;BME280;23843;51.320;12.340;2023-02-22T06:44:15;100369.06;;;9.56;100.00
38038;BME280;23843;51.320;12.340;2023-02-22T06:46:46;100369.00;;;9.57;100.00
38038;BME280;23843;51.320;12.340;2023-02-22T06:49:13;100376.09;;;9.57;100.00
38038;BME280;23843;51.320;12.340;2023-02-22T06:51:39;100367.06;;;9.61;100.00
38038;BME280;23843;51.320;12.340;2023-02-22T06:54:05;100370.41;;;9.64;100.00
38038;BME280;23843;51.320;12.340;2023-02-22T06:56:33;100364.28;;;9.64;100.00
38038;BME280;23843;51.320;12.340;2023-02-22T06:58:59;100376.88;;;9.59;100.00
38038;BME280;23843;51.320;12.340;2023-02-22T07:01:27;100376.03;;;9.58;100.00
38038;BME280;23843;51.320;12.340;2023-02-22T07:03:56;100380.13;;;9.64;100.00
38038;BME280;23843;51.320;12.340;2023-02-22T07:06:22;100368.63;;;9.65;100.00
38038;BME280;23843;51.320;12.340;2023-02-22T07:08:48;100375.00;;;9.61;100.00
38038;BME280;23843;51.320;12.340;2023-02-22T07:11:15;100385.44;;;9.64;100.00
38038;BME280;23843;51.320;12.340;2023-02-22T07:13:42;100387.00;;;9.68;100.00
38038;BME280;23843;51.320;12.340;2023-02-22T07:16:08;100380.75;;;9.69;100.00
38038;BME280;23843;51.320;12.340;2023-02-22T07:18:34;100379.06;;;9.68;100.00
38038;BME280;23843;51.320;12.340;2023-02-22T07:21:01;100384.97;;;9.73;100.00
38038;BME280;23843;51.320;12.340;2023-02-22T07:23:28;100387.53;;;9.75;100.00
38038;BME280;23843;51.320;12.340;2023-02-22T07:25:55;100385.88;;;9.72;100.00
38038;BME280;23843;51.320;12.340;2023-02-22T07:28:20;100380.75;;;9.69;100.00
38038;BME280;23843;51.320;12.340;2023-02-22T07:30:47;100383.41;;;9.69;100.00
38038;BME280;23843;51.320;12.340;2023-02-22T07:33:13;100386.69;;;9.74;100.00
38038;BME280;23843;51.320;12.340;2023-02-22T07:35:43;100380.44;;;9.75;100.00
38038;BME280;23843;51.320;12.340;2023-02-22T07:38:09;100381.94;;;9.81;100.00
38038;BME280;23843;51.320;12.340;2023-02-22T07:40:35;100382.63;;;9.84;100.00
38038;BME280;23843;51.320;12.340;2023-02-22T07:43:04;100377.72;;;9.77;100.00
38038;BME280;23843;51.320;12.340;2023-02-22T07:45:31;100377.78;;;9.75;100.00
38038;BME280;23843;51.320;12.340;2023-02-22T07:47:59;100383.09;;;9.75;100.00
38038;BME280;23843;51.320;12.340;2023-02-22T07:50:28;100386.28;;;9.82;100.00
38038;BME280;23843;51.320;12.340;2023-02-22T07:52:55;100379.91;;;9.86;100.00
38038;BME280;23843;51.320;12.340;2023-02-22T07:55:22;100378.75;;;9.92;100.00
38038;BME280;23843;51.320;12.340;2023-02-22T07:57:51;100378.50;;;9.96;100.00
38038;BME280;23843;51.320;12.340;2023-02-22T08:00:22;100373.28;;;9.95;100.00
38038;BME280;23843;51.320;12.340;2023-02-22T08:02:47;100381.88;;;10.00;100.00
38038;BME280;23843;51.320;12.340;2023-02-22T08:05:15;100372.81;;;10.04;100.00
38038;BME280;23843;51.320;12.340;2023-02-22T08:07:42;100376.69;;;10.14;100.00
38038;BME280;23843;51.320;12.340;2023-02-22T08:10:09;100380.22;;;10.15;100.00
38038;BME280;23843;51.320;12.340;2023-02-22T08:12:36;100374.94;;;10.15;100.00
38038;BME280;23843;51.320;12.340;2023-02-22T08:15:03;100377.63;;;10.13;100.00
38038;BME280;23843;51.320;12.340;2023-02-22T08:17:29;100381.84;;;10.17;100.00
38038;BME280;23843;51.320;12.340;2023-02-22T08:19:55;100373.66;;;10.22;100.00
38038;BME280;23843;51.320;12.340;2023-02-22T08:22:25;100371.88;;;10.22;100.00
38038;BME280;23843;51.320;12.340;2023-02-22T08:24:50;100383.03;;;10.29;100.00
38038;BME280;23843;51.320;12.340;2023-02-22T08:27:16;100372.28;;;10.32;100.00
38038;BME280;23843;51.320;12.340;2023-02-22T08:29:43;100372.28;;;10.32;100.00
38038;BME280;23843;51.320;12.340;2023-02-22T08:32:08;100371.25;;;10.35;100.00
38038;BME280;23843;51.320;12.340;2023-02-22T08:34:34;100372.81;;;10.39;100.00
38038;BME280;23843;51.320;12.340;2023-02-22T08:36:59;100372.47;;;10.45;100.00
38038;BME280;23843;51.320;12.340;2023-02-22T08:39:26;100368.56;;;10.52;100.00
38038;BME280;23843;51.320;12.340;2023-02-22T08:41:53;100375.25;;;10.59;100.00
38038;BME280;23843;51.320;12.340;2023-02-22T08:44:18;100374.16;;;10.63;100.00
38038;BME280;23843;51.320;12.340;2023-02-22T08:46:45;100368.75;;;10.65;100.00
38038;BME280;23843;51.320;12.340;2023-02-22T08:49:11;100365.84;;;10.69;100.00
38038;BME280;23843;51.320;12.340;2023-02-22T08:51:36;100367.06;;;10.80;100.00
38038;BME280;23843;51.320;12.340;2023-02-22T08:54:03;100359.09;;;10.80;100.00
38038;BME280;23843;51.320;12.340;2023-02-22T08:56:30;100365.19;;;10.82;100.00
38038;BME280;23843;51.320;12.340;2023-02-22T08:58:56;100366.38;;;10.92;100.00
38038;BME280;23843;51.320;12.340;2023-02-22T09:01:22;100364.59;;;10.92;100.00
38038;BME280;23843;51.320;12.340;2023-02-22T09:03:48;100365.28;;;10.96;100.00
38038;BME280;23843;51.320;12.340;2023-02-22T09:06:14;100363.81;;;11.06;100.00
38038;BME280;23843;51.320;12.340;2023-02-22T09:08:40;100364.84;;;11.04;100.00
38038;BME280;23843;51.320;12.340;2023-02-22T09:11:06;100363.81;;;11.06;100.00
38038;BME280;23843;51.320;12.340;2023-02-22T09:13:34;100363.75;;;11.08;100.00
38038;BME280;23843;51.320;12.340;2023-02-22T09:16:01;100361.94;;;11.08;100.00
38038;BME280;23843;51.320;12.340;2023-02-22T09:18:28;100357.34;;;11.12;100.00
38038;BME280;23843;51.320;12.340;2023-02-22T09:20:53;100368.63;;;11.16;100.00
38038;BME280;23843;51.320;12.340;2023-02-22T09:23:22;100365.63;;;11.22;100.00
38038;BME280;23843;51.320;12.340;2023-02-22T09:25:49;100364.69;;;11.23;100.00
38038;BME280;23843;51.320;12.340;2023-02-22T09:28:15;100363.06;;;11.20;100.00
38038;BME280;23843;51.320;12.340;2023-02-22T09:30:42;100357.56;;;11.23;100.00
38038;BME280;23843;51.320;12.340;2023-02-22T09:33:11;100362.63;;;11.28;100.00
38038;BME280;23843;51.320;12.340;2023-02-22T09:35:39;100360.03;;;11.42;100.00
38038;BME280;23843;51.320;12.340;2023-02-22T09:38:04;100361.38;;;11.49;100.00
38038;BME280;23843;51.320;12.340;2023-02-22T09:40:32;100361.78;;;11.57;100.00
38038;BME280;23843;51.320;12.340;2023-02-22T09:43:09;100350.06;;;11.62;100.00
38038;BME280;23843;51.320;12.340;2023-02-22T09:45:44;100348.94;;;11.66;100.00
38038;BME280;23843;51.320;12.340;2023-02-22T09:48:16;100353.28;;;11.67;100.00
38038;BME280;23843;51.320;12.340;2023-02-22T09:50:44;100354.00;;;11.54;100.00
38038;BME280;23843;51.320;12.340;2023-02-22T09:53:18;100353.81;;;11.57;100.00
38038;BME280;23843;51.320;12.340;2023-02-22T09:55:49;100336.78;;;11.62;100.00
38038;BME280;23843;51.320;12.340;2023-02-22T09:58:20;100338.22;;;11.67;100.00
38038;BME280;23843;51.320;12.340;2023-02-22T10:00:54;100339.50;;;11.76;100.00
38038;BME280;23843;51.320;12.340;2023-02-22T10:03:24;100334.38;;;11.73;100.00
38038;BME280;23843;51.320;12.340;2023-02-22T10:05:58;100332.97;;;11.82;100.00
38038;BME280;23843;51.320;12.340;2023-02-22T10:08:30;100327.72;;;11.80;100.00
38038;BME280;23843;51.320;12.340;2023-02-22T10:11:04;100328.69;;;11.79;100.00
38038;BME280;23843;51.320;12.340;2023-02-22T10:13:38;100331.59;;;11.90;100.00
38038;BME280;23843;51.320;12.340;2023-02-22T10:16:15;100328.38;;;11.99;100.00
38038;BME280;23843;51.320;12.340;2023-02-22T10:19:01;100331.78;;;12.02;100.00
38038;BME280;23843;51.320;12.340;2023-02-22T10:21:43;100332.09;;;12.11;100.00
38038;BME280;23843;51.320;12.340;2023-02-22T10:24:21;100328.66;;;12.09;100.00
38038;BME280;23843;51.320;12.340;2023-02-22T10:26:57;100321.88;;;12.19;100.00
38038;BME280;23843;51.320;12.340;2023-02-22T10:29:29;100323.28;;;12.39;100.00
38038;BME280;23843;51.320;12.340;2023-02-22T10:32:03;100328.69;;;12.38;100.00
38038;BME280;23843;51.320;12.340;2023-02-22T10:34:32;100323.94;;;12.29;100.00
38038;BME280;23843;51.320;12.340;2023-02-22T10:37:15;100321.00;;;12.33;100.00
38038;BME280;23843;51.320;12.340;2023-02-22T10:39:44;100317.78;;;12.42;100.00
38038;BME280;23843;51.320;12.340;2023-02-22T10:42:12;100319.66;;;12.55;100.00
38038;BME280;23843;51.320;12.340;2023-02-22T10:44:39;100318.81;;;12.54;100.00
38038;BME280;23843;51.320;12.340;2023-02-22T10:47:08;100311.47;;;12.72;100.00
38038;BME280;23843;51.320;12.340;2023-02-22T10:49:36;100307.09;;;12.85;100.00
38038;BME280;23843;51.320;12.340;2023-02-22T10:52:13;100306.72;;;12.77;100.00
38038;BME280;23843;51.320;12.340;2023-02-22T10:54:44;100301.75;;;13.00;100.00
38038;BME280;23843;51.320;12.340;2023-02-22T10:57:11;100307.66;;;12.91;100.00
38038;BME280;23843;51.320;12.340;2023-02-22T10:59:38;100307.34;;;12.95;100.00
38038;BME280;23843;51.320;12.340;2023-02-22T11:02:17;100304.19;;;13.03;100.00
38038;BME280;23843;51.320;12.340;2023-02-22T11:04:46;100302.16;;;13.06;100.00
38038;BME280;23843;51.320;12.340;2023-02-22T11:07:23;100294.91;;;13.23;100.00
38038;BME280;23843;51.320;12.340;2023-02-22T11:09:53;100296.78;;;13.35;100.00
38038;BME280;23843;51.320;12.340;2023-02-22T11:12:25;100289.34;;;13.40;100.00
38038;BME280;23843;51.320;12.340;2023-02-22T11:14:52;100287.94;;;13.35;99.98
38038;BME280;23843;51.320;12.340;2023-02-22T11:17:26;100285.75;;;13.54;100.00
38038;BME280;23843;51.320;12.340;2023-02-22T11:19:52;100285.97;;;13.51;100.00
38038;BME280;23843;51.320;12.340;2023-02-22T11:22:21;100282.84;;;13.44;100.00
38038;BME280;23843;51.320;12.340;2023-02-22T11:24:49;100282.66;;;13.47;100.00
38038;BME280;23843;51.320;12.340;2023-02-22T11:27:26;100280.19;;;13.44;100.00
38038;BME280;23843;51.320;12.340;2023-02-22T11:29:52;100271.75;;;13.38;100.00
38038;BME280;23843;51.320;12.340;2023-02-22T11:32:19;100264.09;;;13.33;100.00
38038;BME280;23843;51.320;12.340;2023-02-22T11:34:49;100263.38;;;13.44;100.00
38038;BME280;23843;51.320;12.340;2023-02-22T11:37:26;100264.78;;;13.49;100.00
38038;BME280;23843;51.320;12.340;2023-02-22T11:40:07;100264.25;;;13.57;100.00
38038;BME280;23843;51.320;12.340;2023-02-22T11:42:38;100261.59;;;13.57;100.00
38038;BME280;23843;51.320;12.340;2023-02-22T11:47:54;100253.06;;;13.52;100.00
38038;BME280;23843;51.320;12.340;2023-02-22T11:50:28;100252.84;;;13.55;100.00
38038;BME280;23843;51.320;12.340;2023-02-22T11:53:11;100245.94;;;13.25;97.10
38038;BME280;23843;51.320;12.340;2023-02-22T11:55:46;100246.00;;;13.38;100.00
38038;BME280;23843;51.320;12.340;2023-02-22T11:58:26;100238.75;;;13.27;99.00
38038;BME280;23843;51.320;12.340;2023-02-22T12:00:59;100239.97;;;13.49;100.00
38038;BME280;23843;51.320;12.340;2023-02-22T12:03:50;100238.16;;;13.62;99.51
38038;BME280;23843;51.320;12.340;2023-02-22T12:06:31;100242.31;;;13.66;99.81
38038;BME280;23843;51.320;12.340;2023-02-22T12:09:12;100235.81;;;13.58;99.32
38038;BME280;23843;51.320;12.340;2023-02-22T12:11:48;100237.84;;;13.54;100.00
38038;BME280;23843;51.320;12.340;2023-02-22T12:14:24;100236.69;;;13.58;100.00
38038;BME280;23843;51.320;12.340;2023-02-22T12:17:09;100230.50;;;13.58;99.51
38038;BME280;23843;51.320;12.340;2023-02-22T12:22:09;100227.19;;;13.67;99.42
38038;BME280;23843;51.320;12.340;2023-02-22T12:24:41;100230.50;;;13.58;97.03
38038;BME280;23843;51.320;12.340;2023-02-22T12:27:10;100229.00;;;13.54;97.26
38038;BME280;23843;51.320;12.340;2023-02-22T12:29:42;100225.47;;;13.53;97.31
38038;BME280;23843;51.320;12.340;2023-02-22T12:32:13;100224.41;;;13.43;98.99
38038;BME280;23843;51.320;12.340;2023-02-22T12:34:44;100229.63;;;13.44;99.38
38038;BME280;23843;51.320;12.340;2023-02-22T12:37:15;100228.97;;;13.41;97.75
38038;BME280;23843;51.320;12.340;2023-02-22T12:39:51;100225.16;;;13.32;96.67
38038;BME280;23843;51.320;12.340;2023-02-22T12:42:23;100227.06;;;13.43;100.00
38038;BME280;23843;51.320;12.340;2023-02-22T12:44:56;100218.47;;;13.52;100.00
38038;BME280;23843;51.320;12.340;2023-02-22T12:47:30;100220.47;;;13.36;97.30
38038;BME280;23843;51.320;12.340;2023-02-22T12:50:04;100213.00;;;13.28;98.81
38038;BME280;23843;51.320;12.340;2023-02-22T12:52:40;100211.38;;;13.25;99.44
38038;BME280;23843;51.320;12.340;2023-02-22T12:55:11;100207.69;;;13.28;100.00
38038;BME280;23843;51.320;12.340;2023-02-22T12:57:43;100212.84;;;13.17;100.00
38038;BME280;23843;51.320;12.340;2023-02-22T13:00:16;100212.47;;;12.96;99.46
38038;BME280;23843;51.320;12.340;2023-02-22T13:02:50;100207.69;;;13.01;100.00
38038;BME280;23843;51.320;12.340;2023-02-22T13:05:21;100202.38;;;13.01;100.00
38038;BME280;23843;51.320;12.340;2023-02-22T13:07:52;100205.91;;;13.14;100.00
38038;BME280;23843;51.320;12.340;2023-02-22T13:10:50;100199.31;;;13.07;100.00
38038;BME280;23843;51.320;12.340;2023-02-22T13:13:23;100201.00;;;13.08;100.00
38038;BME280;23843;51.320;12.340;2023-02-22T13:15:58;100208.00;;;12.96;100.00
38038;BME280;23843;51.320;12.340;2023-02-22T13:18:35;100194.25;;;12.90;100.00
38038;BME280;23843;51.320;12.340;2023-02-22T13:21:12;100198.41;;;12.94;100.00
38038;BME280;23843;51.320;12.340;2023-02-22T13:23:42;100195.00;;;12.92;100.00
38038;BME280;23843;51.320;12.340;2023-02-22T13:26:17;100190.53;;;12.92;100.00
38038;BME280;23843;51.320;12.340;2023-02-22T13:28:49;100189.91;;;12.89;100.00
38038;BME280;23843;51.320;12.340;2023-02-22T13:31:41;100196.31;;;12.99;100.00
38038;BME280;23843;51.320;12.340;2023-02-22T13:34:49;100185.44;;;13.02;100.00
38038;BME280;23843;51.320;12.340;2023-02-22T13:37:40;100194.41;;;13.01;99.59
38038;BME280;23843;51.320;12.340;2023-02-22T13:40:24;100183.00;;;12.99;100.00
38038;BME280;23843;51.320;12.340;2023-02-22T13:43:05;100184.81;;;12.98;100.00
38038;BME280;23843;51.320;12.340;2023-02-22T13:45:53;100192.25;;;12.93;100.00
38038;BME280;23843;51.320;12.340;2023-02-22T13:48:39;100184.03;;;12.83;100.00
38038;BME280;23843;51.320;12.340;2023-02-22T13:51:20;100185.72;;;12.84;100.00
38038;BME280;23843;51.320;12.340;2023-02-22T13:53:53;100181.38;;;12.83;100.00
38038;BME280;23843;51.320;12.340;2023-02-22T13:56:20;100182.66;;;12.78;100.00
38038;BME280;23843;51.320;12.340;2023-02-22T13:58:52;100178.25;;;12.77;100.00
38038;BME280;23843;51.320;12.340;2023-02-22T14:01:39;100180.28;;;12.73;100.00
38038;BME280;23843;51.320;12.340;2023-02-22T14:04:21;100174.84;;;12.75;100.00
38038;BME280;23843;51.320;12.340;2023-02-22T14:06:47;100181.53;;;12.68;100.00
38038;BME280;23843;51.320;12.340;2023-02-22T14:09:16;100181.66;;;12.66;100.00
38038;BME280;23843;51.320;12.340;2023-02-22T14:12:01;100176.50;;;12.63;100.00
38038;BME280;23843;51.320;12.340;2023-02-22T14:14:27;100181.56;;;12.53;100.00
38038;BME280;23843;51.320;12.340;2023-02-22T14:17:15;100169.81;;;12.57;100.00
38038;BME280;23843;51.320;12.340;2023-02-22T14:19:59;100167.97;;;12.58;100.00
38038;BME280;23843;51.320;12.340;2023-02-22T14:22:27;100165.00;;;12.50;100.00
38038;BME280;23843;51.320;12.340;2023-02-22T14:24:56;100161.19;;;12.54;100.00
38038;BME280;23843;51.320;12.340;2023-02-22T14:27:21;100152.56;;;12.50;100.00
38038;BME280;23843;51.320;12.340;2023-02-22T14:29:50;100151.63;;;12.51;100.00
38038;BME280;23843;51.320;12.340;2023-02-22T14:32:17;100167.84;;;12.47;100.00
38038;BME280;23843;51.320;12.340;2023-02-22T14:34:45;100150.84;;;12.49;100.00
38038;BME280;23843;51.320;12.340;2023-02-22T14:37:14;100147.16;;;12.52;100.00
38038;BME280;23843;51.320;12.340;2023-02-22T14:39:43;100140.88;;;12.53;100.00
38038;BME280;23843;51.320;12.340;2023-02-22T14:42:16;100137.56;;;12.49;100.00
38038;BME280;23843;51.320;12.340;2023-02-22T14:44:50;100136.72;;;12.49;100.00
38038;BME280;23843;51.320;12.340;2023-02-22T14:47:21;100134.78;;;12.51;100.00
38038;BME280;23843;51.320;12.340;2023-02-22T14:49:50;100137.44;;;12.51;100.00
38038;BME280;23843;51.320;12.340;2023-02-22T14:52:21;100133.88;;;12.52;100.00
38038;BME280;23843;51.320;12.340;2023-02-22T14:54:55;100135.84;;;12.48;100.00
38038;BME280;23843;51.320;12.340;2023-02-22T14:57:26;100134.78;;;12.51;100.00
38038;BME280;23843;51.320;12.340;2023-02-22T15:00:03;100132.25;;;12.49;100.00
38038;BME280;23843;51.320;12.340;2023-02-22T15:02:37;100132.13;;;12.51;100.00
38038;BME280;23843;51.320;12.340;2023-02-22T15:05:03;100130.44;;;12.50;100.00
38038;BME280;23843;51.320;12.340;2023-02-22T15:07:30;100131.09;;;12.53;100.00
38038;BME280;23843;51.320;12.340;2023-02-22T15:10:13;100119.19;;;12.46;100.00
38038;BME280;23843;51.320;12.340;2023-02-22T15:12:41;100127.44;;;12.41;100.00
38038;BME280;23843;51.320;12.340;2023-02-22T15:15:15;100125.53;;;12.43;100.00
38038;BME280;23843;51.320;12.340;2023-02-22T15:17:42;100125.66;;;12.42;100.00
38038;BME280;23843;51.320;12.340;2023-02-22T15:20:11;100126.41;;;12.44;100.00
38038;BME280;23843;51.320;12.340;2023-02-22T15:22:40;100120.41;;;12.40;100.00
38038;BME280;23843;51.320;12.340;2023-02-22T15:25:08;100120.06;;;12.32;100.00
38038;BME280;23843;51.320;12.340;2023-02-22T15:27:35;100120.63;;;12.37;100.00
38038;BME280;23843;51.320;12.340;2023-02-22T15:30:05;100119.41;;;12.29;100.00
38038;BME280;23843;51.320;12.340;2023-02-22T15:32:33;100115.91;;;12.28;100.00
38038;BME280;23843;51.320;12.340;2023-02-22T15:35:14;100113.84;;;12.19;100.00
38038;BME280;23843;51.320;12.340;2023-02-22T15:37:41;100117.13;;;12.10;100.00
38038;BME280;23843;51.320;12.340;2023-02-22T15:40:10;100113.13;;;12.17;100.00
38038;BME280;23843;51.320;12.340;2023-02-22T15:42:42;100115.50;;;12.07;100.00
38038;BME280;23843;51.320;12.340;2023-02-22T15:45:14;100110.09;;;12.09;100.00
38038;BME280;23843;51.320;12.340;2023-02-22T15:47:40;100117.28;;;12.07;100.00
38038;BME280;23843;51.320;12.340;2023-02-22T15:50:17;100112.38;;;12.01;100.00
38038;BME280;23843;51.320;12.340;2023-02-22T15:52:48;100111.91;;;11.94;100.00
38038;BME280;23843;51.320;12.340;2023-02-22T15:55:15;100110.88;;;11.96;100.00
38038;BME280;23843;51.320;12.340;2023-02-22T15:57:41;100115.03;;;11.86;100.00
38038;BME280;23843;51.320;12.340;2023-02-22T16:00:18;100114.00;;;11.89;100.00
38038;BME280;23843;51.320;12.340;2023-02-22T16:02:45;100111.53;;;11.71;100.00
38038;BME280;23843;51.320;12.340;2023-02-22T16:05:13;100109.38;;;11.78;100.00
38038;BME280;23843;51.320;12.340;2023-02-22T16:07:41;100106.22;;;11.71;100.00
38038;BME280;23843;51.320;12.340;2023-02-22T16:10:19;100108.31;;;11.66;100.00
38038;BME280;23843;51.320;12.340;2023-02-22T16:12:45;100105.28;;;11.58;100.00
38038;BME280;23843;51.320;12.340;2023-02-22T16:15:17;100107.84;;;11.60;100.00
38038;BME280;23843;51.320;12.340;2023-02-22T16:17:43;100110.97;;;11.52;100.00
38038;BME280;23843;51.320;12.340;2023-02-22T16:20:29;100112.38;;;11.43;100.00
38038;BME280;23843;51.320;12.340;2023-02-22T16:22:56;100110.22;;;11.35;100.00
38038;BME280;23843;51.320;12.340;2023-02-22T16:25:24;100113.13;;;11.31;100.00
38038;BME280;23843;51.320;12.340;2023-02-22T16:27:52;100112.38;;;11.29;100.00
38038;BME280;23843;51.320;12.340;2023-02-22T16:30:25;100107.19;;;11.27;100.00
38038;BME280;23843;51.320;12.340;2023-02-22T16:32:52;100107.94;;;11.15;100.00
38038;BME280;23843;51.320;12.340;2023-02-22T16:35:18;100115.13;;;11.13;100.00
38038;BME280;23843;51.320;12.340;2023-02-22T16:37:47;100117.56;;;11.16;100.00
38038;BME280;23843;51.320;12.340;2023-02-22T16:40:19;100112.75;;;11.08;100.00
38038;BME280;23843;51.320;12.340;2023-02-22T16:42:46;100111.91;;;11.08;100.00
38038;BME280;23843;51.320;12.340;2023-02-22T16:45:14;100109.72;;;11.00;100.00
38038;BME280;23843;51.320;12.340;2023-02-22T16:47:42;100117.81;;;10.97;100.00
38038;BME280;23843;51.320;12.340;2023-02-22T16:50:08;100115.56;;;10.91;100.00
38038;BME280;23843;51.320;12.340;2023-02-22T16:52:34;100116.59;;;10.88;100.00
38038;BME280;23843;51.320;12.340;2023-02-22T16:55:03;100118.66;;;10.83;100.00
38038;BME280;23843;51.320;12.340;2023-02-22T16:57:30;100112.41;;;10.84;100.00
38038;BME280;23843;51.320;12.340;2023-02-22T16:59:56;100111.47;;;10.85;100.00
38038;BME280;23843;51.320;12.340;2023-02-22T17:02:22;100112.84;;;10.77;100.00
38038;BME280;23843;51.320;12.340;2023-02-22T17:04:49;100110.28;;;10.75;100.00
38038;BME280;23843;51.320;12.340;2023-02-22T17:07:16;100109.72;;;10.70;100.00
38038;BME280;23843;51.320;12.340;2023-02-22T17:09:42;100108.28;;;10.64;100.00
38038;BME280;23843;51.320;12.340;2023-02-22T17:12:08;100111.00;;;10.63;100.00
38038;BME280;23843;51.320;12.340;2023-02-22T17:14:34;100106.84;;;10.59;100.00
38038;BME280;23843;51.320;12.340;2023-02-22T17:17:00;100107.13;;;10.54;100.00
38038;BME280;23843;51.320;12.340;2023-02-22T17:19:26;100109.94;;;10.51;100.00
38038;BME280;23843;51.320;12.340;2023-02-22T17:21:53;100117.72;;;10.54;100.00
38038;BME280;23843;51.320;12.340;2023-02-22T17:24:22;100112.59;;;10.51;100.00
38038;BME280;23843;51.320;12.340;2023-02-22T17:26:48;100113.13;;;10.42;100.00
38038;BME280;23843;51.320;12.340;2023-02-22T17:29:15;100108.75;;;10.41;100.00
38038;BME280;23843;51.320;12.340;2023-02-22T17:31:41;100106.97;;;10.41;100.00
38038;BME280;23843;51.320;12.340;2023-02-22T17:34:07;100105.44;;;10.37;100.00
38038;BME280;23843;51.320;12.340;2023-02-22T17:36:34;100102.34;;;10.45;100.00
38038;BME280;23843;51.320;12.340;2023-02-22T17:39:03;100101.94;;;10.37;100.00
38038;BME280;23843;51.320;12.340;2023-02-22T17:41:29;100103.03;;;10.33;100.00
38038;BME280;23843;51.320;12.340;2023-02-22T17:43:56;100100.59;;;10.30;100.00
38038;BME280;23843;51.320;12.340;2023-02-22T17:46:21;100101.34;;;10.32;100.00
38038;BME280;23843;51.320;12.340;2023-02-22T17:48:48;100091.31;;;10.21;100.00
38038;BME280;23843;51.320;12.340;2023-02-22T17:51:14;100096.63;;;10.21;100.00
38038;BME280;23843;51.320;12.340;2023-02-22T17:53:39;100098.41;;;10.20;100.00
38038;BME280;23843;51.320;12.340;2023-02-22T17:56:08;100088.78;;;10.19;100.00
38038;BME280;23843;51.320;12.340;2023-02-22T17:58:34;100088.16;;;10.14;100.00
38038;BME280;23843;51.320;12.340;2023-02-22T18:00:59;100099.63;;;10.15;100.00
38038;BME280;23843;51.320;12.340;2023-02-22T18:03:25;100086.28;;;10.16;100.00
38038;BME280;23843;51.320;12.340;2023-02-22T18:05:53;100085.38;;;10.17;100.00
38038;BME280;23843;51.320;12.340;2023-02-22T18:08:19;100077.56;;;10.14;100.00
38038;BME280;23843;51.320;12.340;2023-02-22T18:10:46;100080.59;;;10.08;100.00
38038;BME280;23843;51.320;12.340;2023-02-22T18:13:14;100076.22;;;10.07;100.00
38038;BME280;23843;51.320;12.340;2023-02-22T18:15:40;100085.09;;;10.06;100.00
38038;BME280;23843;51.320;12.340;2023-02-22T18:18:08;100080.59;;;10.08;100.00
38038;BME280;23843;51.320;12.340;2023-02-22T18:20:33;100074.69;;;10.03;100.00
38038;BME280;23843;51.320;12.340;2023-02-22T18:23:00;100081.69;;;10.04;100.00